createdAt,value
2023-03-06T00:00:50.455Z,9.358543
2023-03-06T00:01:50.419Z,9.358499
2023-03-06T00:02:51.768Z,9.358532
2023-03-06T00:03:50.420Z,9.358562
2023-03-06T00:04:50.408Z,9.358593
2023-03-06T00:05:50.401Z,9.358598
2023-03-06T00:06:50.350Z,9.358624
2023-03-06T00:07:50.374Z,9.358603
2023-03-06T00:08:50.373Z,9.358585
2023-03-06T00:09:50.349Z,9.358568
2023-03-06T00:10:50.305Z,9.358573
2023-03-06T00:11:50.309Z,9.358551
2023-03-06T00:12:50.326Z,9.358580
2023-03-06T00:13:50.307Z,9.358585
2023-03-06T00:14:50.266Z,9.358547
2023-03-06T00:15:50.371Z,9.358501
2023-03-06T00:16:50.246Z,9.358468
2023-03-06T00:17:50.241Z,9.358523
2023-03-06T00:18:50.258Z,9.358563
2023-03-06T00:19:50.237Z,9.358616
2023-03-06T00:20:50.204Z,9.358565
2023-03-06T00:21:50.201Z,9.358555
2023-03-06T00:22:50.204Z,9.358604
2023-03-06T00:23:50.163Z,9.358590
2023-03-06T00:24:50.209Z,9.358566
2023-03-06T00:25:50.179Z,9.358623
2023-03-06T00:26:50.145Z,9.358563
2023-03-06T00:27:50.156Z,9.358528
2023-03-06T00:28:50.151Z,9.358593
2023-03-06T00:29:50.141Z,9.358611
2023-03-06T00:30:50.120Z,9.358597
2023-03-06T00:31:50.127Z,9.358581
2023-03-06T00:32:50.061Z,9.358599
2023-03-06T00:33:50.084Z,9.358652
2023-03-06T00:34:50.094Z,9.358673
2023-03-06T00:35:50.082Z,9.358665
2023-03-06T00:36:50.018Z,9.358656
2023-03-06T00:37:50.042Z,9.358665
2023-03-06T00:38:50.037Z,9.358574
2023-03-06T00:39:50.026Z,9.358546
2023-03-06T00:40:50.003Z,9.358527
2023-03-06T00:41:49.984Z,9.358515
2023-03-06T00:42:49.989Z,9.358526
2023-03-06T00:43:49.989Z,9.358601
2023-03-06T00:44:49.940Z,9.358520
2023-03-06T00:45:49.963Z,9.358504
2023-03-06T00:46:49.948Z,9.358525
2023-03-06T00:47:49.910Z,9.358618
2023-03-06T00:48:49.936Z,9.358668
2023-03-06T00:49:49.915Z,9.358553
2023-03-06T00:50:49.885Z,9.358541
2023-03-06T00:51:49.884Z,9.358517
2023-03-06T00:52:49.898Z,9.358573
2023-03-06T00:53:49.864Z,9.358512
2023-03-06T00:54:49.851Z,9.358592
2023-03-06T00:55:49.854Z,9.358537
2023-03-06T00:56:49.812Z,9.358590
2023-03-06T00:57:49.816Z,9.358669
2023-03-06T00:58:49.825Z,9.358618
2023-03-06T00:59:49.837Z,9.358565
2023-03-06T01:00:49.797Z,9.358576
2023-03-06T01:01:49.810Z,9.358645
2023-03-06T01:02:49.812Z,9.358718
2023-03-06T01:03:49.765Z,9.358724
2023-03-06T01:04:49.766Z,9.358653
2023-03-06T01:05:49.756Z,9.358595
2023-03-06T01:06:49.727Z,9.358624
2023-03-06T01:07:49.719Z,9.358617
2023-03-06T01:08:49.717Z,9.358633
2023-03-06T01:09:49.701Z,9.358541
2023-03-06T01:10:49.681Z,9.358530
2023-03-06T01:11:49.682Z,9.358549
2023-03-06T01:12:49.657Z,9.358559
2023-03-06T01:13:49.647Z,9.358593
2023-03-06T01:14:49.662Z,9.358623
2023-03-06T01:15:49.663Z,9.358662
2023-03-06T01:16:49.608Z,9.358667
2023-03-06T01:17:50.625Z,9.358612
2023-03-06T01:18:49.622Z,9.358550
2023-03-06T01:19:49.582Z,9.358463
2023-03-06T01:20:49.618Z,9.358562
2023-03-06T01:21:49.573Z,9.358685
2023-03-06T01:22:50.565Z,9.358659
2023-03-06T01:23:49.564Z,9.358618
2023-03-06T01:24:49.557Z,9.358603
2023-03-06T01:25:49.528Z,9.358765
2023-03-06T01:26:49.525Z,9.358625
2023-03-06T01:27:49.554Z,9.358562
2023-03-06T01:28:49.500Z,9.358578
2023-03-06T01:29:49.491Z,9.358695
2023-03-06T01:30:49.490Z,9.358724
2023-03-06T01:31:49.514Z,9.358694
2023-03-06T01:32:49.431Z,9.358604
2023-03-06T01:33:49.441Z,9.358803
2023-03-06T01:34:49.464Z,9.358690
2023-03-06T01:35:49.456Z,9.358605
2023-03-06T01:36:49.453Z,9.358618
2023-03-06T01:37:49.415Z,9.358582
2023-03-06T01:38:49.378Z,9.358565
2023-03-06T01:39:49.408Z,9.358577
2023-03-06T01:40:49.390Z,9.358586
2023-03-06T01:41:49.384Z,9.358608
2023-03-06T01:42:49.344Z,9.358644
2023-03-06T01:43:49.342Z,9.358512
2023-03-06T01:44:49.353Z,9.358506
2023-03-06T01:45:49.396Z,9.358508
2023-03-06T01:46:49.327Z,9.358495
2023-03-06T01:47:49.296Z,9.358549
2023-03-06T01:48:49.328Z,9.358542
2023-03-06T01:49:49.295Z,9.358560
2023-03-06T01:50:49.247Z,9.358573
2023-03-06T01:51:49.284Z,9.358571
2023-03-06T01:52:49.236Z,9.358545
2023-03-06T01:53:49.237Z,9.358511
2023-03-06T01:54:49.235Z,9.358522
2023-03-06T01:55:49.225Z,9.358535
2023-03-06T01:56:49.208Z,9.358533
2023-03-06T01:57:49.196Z,9.358502
2023-03-06T01:58:49.210Z,9.358557
2023-03-06T01:59:49.161Z,9.358549
2023-03-06T02:00:49.286Z,9.358543
2023-03-06T02:01:49.165Z,9.358508
2023-03-06T02:02:49.144Z,9.358515
2023-03-06T02:03:49.134Z,9.358515
2023-03-06T02:04:49.151Z,9.358508
2023-03-06T02:05:49.165Z,9.358528
2023-03-06T02:06:49.098Z,9.358578
2023-03-06T02:07:49.112Z,9.358537
2023-03-06T02:08:49.084Z,9.358568
2023-03-06T02:09:49.086Z,9.358580
2023-03-06T02:10:49.073Z,9.358533
2023-03-06T02:11:49.109Z,9.358558
2023-03-06T02:12:49.061Z,9.358597
2023-03-06T02:13:49.040Z,9.358541
2023-03-06T02:14:49.085Z,9.358576
2023-03-06T02:15:49.021Z,9.358592
2023-03-06T02:16:49.056Z,9.358671
2023-03-06T02:17:48.997Z,9.358612
2023-03-06T02:18:49.020Z,9.358613
2023-03-06T02:19:48.982Z,9.358582
2023-03-06T02:20:48.946Z,9.358609
2023-03-06T02:21:48.957Z,9.358622
2023-03-06T02:22:48.962Z,9.358607
2023-03-06T02:23:48.921Z,9.358641
2023-03-06T02:24:48.957Z,9.358582
2023-03-06T02:25:48.920Z,9.358574
2023-03-06T02:26:48.897Z,9.358599
2023-03-06T02:27:48.899Z,9.358552
2023-03-06T02:28:48.895Z,9.358518
2023-03-06T02:29:48.869Z,9.358546
2023-03-06T02:30:48.878Z,9.358503
2023-03-06T02:31:48.873Z,9.358553
2023-03-06T02:32:48.821Z,9.358601
2023-03-06T02:33:48.825Z,9.358615
2023-03-06T02:34:48.842Z,9.358594
2023-03-06T02:35:48.874Z,9.358554
2023-03-06T02:36:48.793Z,9.358571
2023-03-06T02:37:48.786Z,9.358550
2023-03-06T02:38:48.801Z,9.358613
2023-03-06T02:39:48.750Z,9.358585
2023-03-06T02:40:48.789Z,9.358598
2023-03-06T02:41:48.751Z,9.358618
2023-03-06T02:42:48.725Z,9.358644
2023-03-06T02:43:48.734Z,9.358644
2023-03-06T02:44:48.745Z,9.358644
2023-03-06T02:45:48.793Z,9.358663
2023-03-06T02:46:48.697Z,9.358545
2023-03-06T02:47:48.717Z,9.358574
2023-03-06T02:48:48.683Z,9.358544
2023-03-06T02:49:48.665Z,9.358555
2023-03-06T02:50:48.648Z,9.358525
2023-03-06T02:51:48.646Z,9.358563
2023-03-06T02:52:48.641Z,9.358600
2023-03-06T02:53:48.622Z,9.358601
2023-03-06T02:54:48.584Z,9.358632
2023-03-06T02:55:48.627Z,9.358610
2023-03-06T02:56:48.586Z,9.358567
2023-03-06T02:57:48.570Z,9.358641
2023-03-06T02:58:48.587Z,9.358620
2023-03-06T02:59:48.553Z,9.358603
2023-03-06T03:00:48.560Z,9.358548
2023-03-06T03:01:48.584Z,9.358521
2023-03-06T03:02:48.532Z,9.358521
2023-03-06T03:03:48.519Z,9.358643
2023-03-06T03:04:48.540Z,9.358685
2023-03-06T03:05:48.488Z,9.358662
2023-03-06T03:06:48.465Z,9.358588
2023-03-06T03:07:48.466Z,9.358500
2023-03-06T03:08:48.498Z,9.358541
2023-03-06T03:09:48.488Z,9.358557
2023-03-06T03:10:48.425Z,9.358567
2023-03-06T03:11:48.453Z,9.358588
2023-03-06T03:12:48.395Z,9.358563
2023-03-06T03:13:48.429Z,9.358567
2023-03-06T03:14:48.422Z,9.358602
2023-03-06T03:15:48.405Z,9.358631
2023-03-06T03:16:48.354Z,9.358624
2023-03-06T03:17:48.362Z,9.358628
2023-03-06T03:18:48.388Z,9.358589
2023-03-06T03:19:48.337Z,9.358597
2023-03-06T03:20:48.352Z,9.358640
2023-03-06T03:21:48.327Z,9.358636
2023-03-06T03:22:48.314Z,9.358639
2023-03-06T03:23:48.302Z,9.358551
2023-03-06T03:24:48.370Z,9.358521
2023-03-06T03:25:48.288Z,9.358492
2023-03-06T03:26:48.259Z,9.358506
2023-03-06T03:27:48.309Z,9.358528
2023-03-06T03:28:48.236Z,9.358542
2023-03-06T03:29:48.256Z,9.358561
2023-03-06T03:30:48.301Z,9.358606
2023-03-06T03:31:48.217Z,9.358531
2023-03-06T03:32:48.194Z,9.358601
2023-03-06T03:33:48.192Z,9.358591
2023-03-06T03:34:48.221Z,9.358603
2023-03-06T03:35:48.193Z,9.358531
2023-03-06T03:36:48.183Z,9.358527
2023-03-06T03:37:48.152Z,9.358598
2023-03-06T03:38:48.126Z,9.358576
2023-03-06T03:39:48.133Z,9.358639
2023-03-06T03:40:48.171Z,9.358617
2023-03-06T03:41:48.125Z,9.358591
2023-03-06T03:42:48.082Z,9.358635
2023-03-06T03:43:48.107Z,9.358592
2023-03-06T03:44:48.056Z,9.358574
2023-03-06T03:45:48.066Z,9.358570
2023-03-06T03:46:48.131Z,9.358566
2023-03-06T03:47:48.067Z,9.358520
2023-03-06T03:48:48.017Z,9.358549
2023-03-06T03:49:48.021Z,9.358576
2023-03-06T03:50:48.042Z,9.358664
2023-03-06T03:51:48.023Z,9.358685
2023-03-06T03:52:47.974Z,9.358627
2023-03-06T03:53:47.982Z,9.358622
2023-03-06T03:54:47.990Z,9.358635
2023-03-06T03:55:47.990Z,9.358626
2023-03-06T03:56:47.940Z,9.358606
2023-03-06T03:57:47.954Z,9.358596
2023-03-06T03:58:47.962Z,9.358589
2023-03-06T03:59:47.951Z,9.358613
2023-03-06T04:00:47.924Z,9.358579
2023-03-06T04:01:47.915Z,9.358507
2023-03-06T04:02:47.891Z,9.358517
2023-03-06T04:03:47.890Z,9.358636
2023-03-06T04:04:47.935Z,9.358685
2023-03-06T04:05:47.854Z,9.358638
2023-03-06T04:06:47.822Z,9.358579
2023-03-06T04:07:47.856Z,9.358616
2023-03-06T04:08:47.824Z,9.358674
2023-03-06T04:09:47.809Z,9.358686
2023-03-06T04:10:47.816Z,9.358669
2023-03-06T04:11:47.787Z,9.358609
2023-03-06T04:12:47.775Z,9.358569
2023-03-06T04:13:47.754Z,9.358553
2023-03-06T04:14:47.812Z,9.358550
2023-03-06T04:15:47.729Z,9.358567
2023-03-06T04:16:47.765Z,9.358561
2023-03-06T04:17:47.722Z,9.358566
2023-03-06T04:18:47.731Z,9.358582
2023-03-06T04:19:47.690Z,9.358550
2023-03-06T04:20:47.716Z,9.358628
2023-03-06T04:21:47.683Z,9.358630
2023-03-06T04:22:47.654Z,9.358566
2023-03-06T04:23:47.676Z,9.358618
2023-03-06T04:24:47.658Z,9.358596
2023-03-06T04:25:47.648Z,9.358580
2023-03-06T04:26:47.617Z,9.358573
2023-03-06T04:27:47.622Z,9.358541
2023-03-06T04:28:47.620Z,9.358537
2023-03-06T04:29:47.616Z,9.358548
2023-03-06T04:30:47.575Z,9.358548
2023-03-06T04:31:47.650Z,9.358579
2023-03-06T04:32:47.548Z,9.358544
2023-03-06T04:33:47.549Z,9.358542
2023-03-06T04:34:47.558Z,9.358541
2023-03-06T04:35:47.638Z,9.358553
2023-03-06T04:36:47.535Z,9.358577
2023-03-06T04:37:47.529Z,9.358572
2023-03-06T04:38:47.546Z,9.358496
2023-03-06T04:39:47.512Z,9.358500
2023-03-06T04:40:47.509Z,9.358491
2023-03-06T04:41:47.513Z,9.358517
2023-03-06T04:42:47.459Z,9.358508
2023-03-06T04:43:47.452Z,9.358488
2023-03-06T04:44:47.472Z,9.358508
2023-03-06T04:45:47.498Z,9.358555
2023-03-06T04:46:47.410Z,9.358532
2023-03-06T04:47:47.435Z,9.358542
2023-03-06T04:48:47.387Z,9.358546
2023-03-06T04:49:47.410Z,9.358513
2023-03-06T04:50:47.393Z,9.358492
2023-03-06T04:51:47.389Z,9.358509
2023-03-06T04:52:47.356Z,9.358497
2023-03-06T04:53:47.360Z,9.358586
2023-03-06T04:54:47.359Z,9.358561
2023-03-06T04:55:47.348Z,9.358503
2023-03-06T04:56:47.300Z,9.358510
2023-03-06T04:57:47.335Z,9.358518
2023-03-06T04:58:47.312Z,9.358609
2023-03-06T04:59:47.298Z,9.358561
2023-03-06T05:00:47.291Z,9.358543
2023-03-06T05:01:47.287Z,9.358529
2023-03-06T05:02:47.266Z,9.358535
2023-03-06T05:03:47.258Z,9.358541
2023-03-06T05:04:47.244Z,9.358603
2023-03-06T05:05:47.234Z,9.358626
2023-03-06T05:06:47.196Z,9.358570
2023-03-06T05:07:47.212Z,9.358546
2023-03-06T05:08:47.213Z,9.358482
2023-03-06T05:09:47.202Z,9.358450
2023-03-06T05:10:47.143Z,9.358436
2023-03-06T05:11:47.174Z,9.358488
2023-03-06T05:12:47.127Z,9.358478
2023-03-06T05:13:47.128Z,9.358520
2023-03-06T05:14:48.088Z,9.358523
2023-03-06T05:15:48.130Z,9.358481
2023-03-06T05:16:47.161Z,9.358459
2023-03-06T05:17:47.089Z,9.358460
2023-03-06T05:18:49.406Z,9.358485
2023-03-06T05:19:47.067Z,9.358467
2023-03-06T05:20:47.108Z,9.358480
2023-03-06T05:21:47.071Z,9.358466
2023-03-06T05:22:47.029Z,9.358519
2023-03-06T05:23:47.034Z,9.358535
2023-03-06T05:24:47.053Z,9.358541
2023-03-06T05:25:47.024Z,9.358504
2023-03-06T05:26:46.986Z,9.358469
2023-03-06T05:27:47.023Z,9.358552
2023-03-06T05:28:46.967Z,9.358690
2023-03-06T05:29:46.972Z,9.358651
2023-03-06T05:30:46.974Z,9.358586
2023-03-06T05:31:47.004Z,9.358483
2023-03-06T05:32:46.987Z,9.358471
2023-03-06T05:33:46.925Z,9.358500
2023-03-06T05:34:46.937Z,9.358497
2023-03-06T05:35:46.919Z,9.358693
2023-03-06T05:36:46.925Z,9.358689
2023-03-06T05:37:46.898Z,9.358656
2023-03-06T05:38:46.866Z,9.358651
2023-03-06T05:39:46.872Z,9.358617
2023-03-06T05:40:46.885Z,9.358521
2023-03-06T05:41:46.842Z,9.358504
2023-03-06T05:42:46.826Z,9.358491
2023-03-06T05:43:46.847Z,9.358506
2023-03-06T05:44:46.802Z,9.358588
2023-03-06T05:45:46.839Z,9.358595
2023-03-06T05:46:46.808Z,9.358665
2023-03-06T05:47:46.796Z,9.358609
2023-03-06T05:48:47.106Z,9.358574
2023-03-06T05:49:47.761Z,9.358584
2023-03-06T05:50:46.789Z,9.358619
2023-03-06T05:51:46.784Z,9.358669
2023-03-06T05:52:46.752Z,9.358691
2023-03-06T05:53:46.724Z,9.358560
2023-03-06T05:54:46.698Z,9.358548
2023-03-06T05:55:46.715Z,9.358596
2023-03-06T05:56:46.701Z,9.358599
2023-03-06T05:57:46.692Z,9.358537
2023-03-06T05:58:46.654Z,9.358521
2023-03-06T05:59:46.661Z,9.358546
2023-03-06T06:00:46.689Z,9.358555
2023-03-06T06:01:46.650Z,9.358624
2023-03-06T06:02:46.609Z,9.358645
2023-03-06T06:03:46.663Z,9.358615
2023-03-06T06:04:46.625Z,9.358605
2023-03-06T06:05:46.607Z,9.358664
2023-03-06T06:06:46.566Z,9.358645
2023-03-06T06:07:46.581Z,9.358642
2023-03-06T06:08:46.575Z,9.358619
2023-03-06T06:09:46.566Z,9.358658
2023-03-06T06:10:46.568Z,9.358578
2023-03-06T06:11:46.530Z,9.358551
2023-03-06T06:12:46.525Z,9.358550
2023-03-06T06:13:46.504Z,9.358501
2023-03-06T06:14:46.521Z,9.358500
2023-03-06T06:15:46.535Z,9.358435
2023-03-06T06:16:46.508Z,9.358490
2023-03-06T06:17:46.470Z,9.358488
2023-03-06T06:18:46.462Z,9.358541
2023-03-06T06:19:46.446Z,9.358496
2023-03-06T06:20:46.450Z,9.358493
2023-03-06T06:21:46.441Z,9.358500
2023-03-06T06:22:46.403Z,9.358521
2023-03-06T06:23:46.432Z,9.358517
2023-03-06T06:24:46.386Z,9.358564
2023-03-06T06:25:46.393Z,9.358615
2023-03-06T06:26:46.407Z,9.358622
2023-03-06T06:27:46.376Z,9.358578
2023-03-06T06:28:46.342Z,9.358584
2023-03-06T06:29:46.344Z,9.358607
2023-03-06T06:30:46.389Z,9.358583
2023-03-06T06:31:46.351Z,9.358570
2023-03-06T06:32:46.307Z,9.358541
2023-03-06T06:33:46.313Z,9.358612
2023-03-06T06:34:46.302Z,9.358723
2023-03-06T06:35:46.466Z,9.358665
2023-03-06T06:36:46.272Z,9.358531
2023-03-06T06:37:46.269Z,9.358550
2023-03-06T06:38:46.271Z,9.358490
2023-03-06T06:39:46.263Z,9.358447
2023-03-06T06:41:04.700Z,9.358546
2023-03-06T06:42:02.302Z,9.358547
2023-03-06T06:42:48.192Z,9.358587
2023-03-06T06:43:46.202Z,9.358526
2023-03-06T06:44:46.212Z,9.358490
2023-03-06T06:45:46.424Z,9.358505
2023-03-06T06:47:48.192Z,9.358491
2023-03-06T06:48:46.127Z,9.358608
2023-03-06T06:49:46.136Z,9.358562
2023-03-06T06:50:46.163Z,9.358547
2023-03-06T06:51:46.134Z,9.358488
2023-03-06T06:52:46.168Z,9.358517
2023-03-06T06:53:46.097Z,9.358447
2023-03-06T06:54:46.117Z,9.358439
2023-03-06T06:55:46.064Z,9.358543
2023-03-06T06:56:46.098Z,9.358560
2023-03-06T06:57:46.083Z,9.358647
2023-03-06T06:58:46.024Z,9.358614
2023-03-06T06:59:47.054Z,9.358622
2023-03-06T07:00:46.049Z,9.358687
2023-03-06T07:01:46.136Z,9.358510
2023-03-06T07:02:45.983Z,9.358491
2023-03-06T07:03:46.015Z,9.358570
2023-03-06T07:05:01.884Z,9.358575
2023-03-06T07:05:47.976Z,9.358561
2023-03-06T07:06:45.965Z,9.358619
2023-03-06T07:07:45.958Z,9.358644
2023-03-06T07:08:45.956Z,9.358611
2023-03-06T07:09:45.936Z,9.358550
2023-03-06T07:10:45.899Z,9.358502
2023-03-06T07:11:45.926Z,9.358519
2023-03-06T07:12:45.893Z,9.358502
2023-03-06T07:13:45.894Z,9.358469
2023-03-06T07:14:45.906Z,9.358525
2023-03-06T07:15:45.968Z,9.358540
2023-03-06T07:16:45.841Z,9.358483
2023-03-06T07:17:46.711Z,9.358490
2023-03-06T07:18:45.847Z,9.358521
2023-03-06T07:19:45.826Z,9.358521
2023-03-06T07:20:45.829Z,9.358515
2023-03-06T07:21:45.816Z,9.358549
2023-03-06T07:22:51.523Z,9.358500
2023-03-06T07:23:47.783Z,9.358515
2023-03-06T07:24:45.763Z,9.358554
2023-03-06T07:25:45.771Z,9.358620
2023-03-06T07:26:45.729Z,9.358651
2023-03-06T07:27:52.784Z,9.358572
2023-03-06T07:28:52.645Z,9.358512
2023-03-06T07:29:47.711Z,9.358508
2023-03-06T07:30:45.738Z,9.358528
2023-03-06T07:31:45.745Z,9.358592
2023-03-06T07:32:45.677Z,9.358627
2023-03-06T07:33:45.675Z,9.358508
2023-03-06T07:34:45.702Z,9.358524
2023-03-06T07:35:45.703Z,9.358658
2023-03-06T07:36:45.632Z,9.358627
2023-03-06T07:37:45.635Z,9.358568
2023-03-06T07:38:45.663Z,9.358652
2023-03-06T07:39:45.624Z,9.358662
2023-03-06T07:40:45.600Z,9.358628
2023-03-06T07:41:45.599Z,9.358549
2023-03-06T07:42:45.604Z,9.358562
2023-03-06T07:43:45.582Z,9.358484
2023-03-06T07:44:45.578Z,9.358488
2023-03-06T07:45:45.567Z,9.358565
2023-03-06T07:46:45.609Z,9.358659
2023-03-06T07:47:45.521Z,9.358624
2023-03-06T07:48:45.540Z,9.358639
2023-03-06T07:49:45.514Z,9.358624
2023-03-06T07:50:45.498Z,9.358685
2023-03-06T07:51:45.524Z,9.358670
2023-03-06T07:52:45.473Z,9.358664
2023-03-06T07:53:45.468Z,9.358685
2023-03-06T07:54:45.473Z,9.358684
2023-03-06T07:55:45.477Z,9.358653
2023-03-06T07:56:45.437Z,9.358617
2023-03-06T07:57:45.420Z,9.358594
2023-03-06T07:58:45.461Z,9.358569
2023-03-06T07:59:45.410Z,9.358616
2023-03-06T08:00:45.420Z,9.358625
2023-03-06T08:01:45.406Z,9.358669
2023-03-06T08:02:45.390Z,9.358643
2023-03-06T08:03:45.470Z,9.358638
2023-03-06T08:04:45.368Z,9.358664
2023-03-06T08:05:45.347Z,9.358604
2023-03-06T08:06:45.336Z,9.358590
2023-03-06T08:07:45.333Z,9.358583
2023-03-06T08:08:45.355Z,9.358616
2023-03-06T08:09:45.303Z,9.358603
2023-03-06T08:10:45.281Z,9.358582
2023-03-06T08:11:45.326Z,9.358547
2023-03-06T08:12:45.290Z,9.358531
2023-03-06T08:13:45.281Z,9.358538
2023-03-06T08:14:45.237Z,9.358532
2023-03-06T08:15:45.265Z,9.358542
2023-03-06T08:16:45.226Z,9.358532
2023-03-06T08:17:45.248Z,9.358511
2023-03-06T08:18:46.554Z,9.358538
2023-03-06T08:19:46.208Z,9.358502
2023-03-06T08:20:45.182Z,9.358500
2023-03-06T08:21:45.190Z,9.358451
2023-03-06T08:22:45.204Z,9.358469
2023-03-06T08:23:45.192Z,9.358497
2023-03-06T08:24:45.169Z,9.358519
2023-03-06T08:25:45.138Z,9.358523
2023-03-06T08:26:45.121Z,9.358544
2023-03-06T08:27:45.122Z,9.358507
2023-03-06T08:28:45.160Z,9.358520
2023-03-06T08:29:45.104Z,9.358546
2023-03-06T08:30:45.077Z,9.358512
2023-03-06T08:31:45.132Z,9.358535
2023-03-06T08:32:45.130Z,9.358580
2023-03-06T08:33:45.077Z,9.358613
2023-03-06T08:34:45.072Z,9.358560
2023-03-06T08:35:45.080Z,9.358583
2023-03-06T08:36:45.010Z,9.358614
2023-03-06T08:37:45.051Z,9.358674
2023-03-06T08:38:45.042Z,9.358622
2023-03-06T08:39:44.996Z,9.358646
2023-03-06T08:40:45.062Z,9.358672
2023-03-06T08:41:44.977Z,9.358629
2023-03-06T08:42:45.013Z,9.358594
2023-03-06T08:43:44.978Z,9.358597
2023-03-06T08:44:44.947Z,9.358631
2023-03-06T08:45:44.988Z,9.358664
2023-03-06T08:46:44.958Z,9.358655
2023-03-06T08:47:44.926Z,9.358660
2023-03-06T08:48:44.940Z,9.358659
2023-03-06T08:49:44.956Z,9.358598
2023-03-06T08:50:44.873Z,9.358559
2023-03-06T08:51:44.920Z,9.358542
2023-03-06T08:52:44.890Z,9.358503
2023-03-06T08:53:44.883Z,9.358514
2023-03-06T08:54:44.841Z,9.358488
2023-03-06T08:55:44.855Z,9.358563
2023-03-06T08:56:44.823Z,9.358603
2023-03-06T08:57:44.805Z,9.358594
2023-03-06T08:58:44.830Z,9.358563
2023-03-06T08:59:44.793Z,9.358589
2023-03-06T09:00:44.866Z,9.358564
2023-03-06T09:01:44.820Z,9.358557
2023-03-06T09:02:44.829Z,9.358554
2023-03-06T09:03:44.788Z,9.358532
2023-03-06T09:04:44.765Z,9.358537
2023-03-06T09:05:44.743Z,9.358623
2023-03-06T09:06:44.712Z,9.358627
2023-03-06T09:07:44.733Z,9.358595
2023-03-06T09:08:44.871Z,9.358600
2023-03-06T09:09:44.756Z,9.358518
2023-03-06T09:10:44.733Z,9.358502
2023-03-06T09:11:44.713Z,9.358486
2023-03-06T09:12:50.563Z,9.358555
2023-03-06T09:13:46.659Z,9.358588
2023-03-06T09:14:44.640Z,9.358681
2023-03-06T09:15:44.649Z,9.358670
2023-03-06T09:16:44.720Z,9.358608
2023-03-06T09:17:44.685Z,9.358647
2023-03-06T09:18:44.611Z,9.358551
2023-03-06T09:19:44.650Z,9.358537
2023-03-06T09:20:44.572Z,9.358526
2023-03-06T09:21:44.594Z,9.358547
2023-03-06T09:22:44.576Z,9.358584
2023-03-06T09:23:44.600Z,9.358571
2023-03-06T09:24:44.549Z,9.358532
2023-03-06T09:25:44.559Z,9.358543
2023-03-06T09:26:46.683Z,9.358598
2023-03-06T09:27:45.523Z,9.358571
2023-03-06T09:28:44.518Z,9.358627
2023-03-06T09:29:44.491Z,9.358632
2023-03-06T09:30:44.483Z,9.358671
2023-03-06T09:31:44.512Z,9.358739
2023-03-06T09:32:44.518Z,9.358792
2023-03-06T09:33:44.497Z,9.358666
2023-03-06T09:34:44.472Z,9.358603
2023-03-06T09:35:44.494Z,9.358552
2023-03-06T09:36:56.081Z,9.358497
2023-03-06T09:37:46.413Z,9.358544
2023-03-06T09:38:44.435Z,9.358565
2023-03-06T09:39:44.410Z,9.358583
2023-03-06T09:40:44.378Z,9.358639
2023-03-06T09:41:44.397Z,9.358595
2023-03-06T09:42:44.409Z,9.358541
2023-03-06T09:43:44.326Z,9.358544
2023-03-06T09:44:44.360Z,9.358568
2023-03-06T09:45:44.405Z,9.358549
2023-03-06T09:46:44.318Z,9.358588
2023-03-06T09:47:44.318Z,9.358570
2023-03-06T09:48:44.348Z,9.358523
2023-03-06T09:49:44.307Z,9.358533
2023-03-06T09:50:44.267Z,9.358479
2023-03-06T09:51:44.296Z,9.358469
2023-03-06T09:52:44.253Z,9.358484
2023-03-06T09:53:44.272Z,9.358541
2023-03-06T09:54:45.275Z,9.358570
2023-03-06T09:55:44.237Z,9.358566
2023-03-06T09:56:44.205Z,9.358566
2023-03-06T09:57:44.221Z,9.358562
2023-03-06T09:58:44.243Z,9.358545
2023-03-06T09:59:44.183Z,9.358544
2023-03-06T10:00:44.210Z,9.358551
2023-03-06T10:01:44.192Z,9.358562
2023-03-06T10:02:44.221Z,9.358524
2023-03-06T10:03:44.147Z,9.358532
2023-03-06T10:04:44.252Z,9.358540
2023-03-06T10:05:44.140Z,9.358498
2023-03-06T10:06:44.124Z,9.358531
2023-03-06T10:07:44.131Z,9.358581
2023-03-06T10:08:44.118Z,9.358591
2023-03-06T10:09:44.118Z,9.358576
2023-03-06T10:10:44.102Z,9.358587
2023-03-06T10:11:44.094Z,9.358685
2023-03-06T10:12:44.059Z,9.358626
2023-03-06T10:13:44.051Z,9.358673
2023-03-06T10:14:44.258Z,9.358646
2023-03-06T10:15:44.119Z,9.358637
2023-03-06T10:16:44.022Z,9.358619
2023-03-06T10:17:44.009Z,9.358609
2023-03-06T10:18:44.023Z,9.358658
2023-03-06T10:19:44.001Z,9.358691
2023-03-06T10:20:43.981Z,9.358524
2023-03-06T10:21:44.000Z,9.358585
2023-03-06T10:22:48.059Z,9.358561
2023-03-06T10:23:45.937Z,9.358519
2023-03-06T10:24:43.985Z,9.358522
2023-03-06T10:25:43.959Z,9.358451
2023-03-06T10:26:44.014Z,9.358509
2023-03-06T10:27:43.912Z,9.358536
2023-03-06T10:28:43.929Z,9.358548
2023-03-06T10:29:56.349Z,9.358526
2023-03-06T10:30:45.948Z,9.358544
2023-03-06T10:31:43.896Z,9.358586
2023-03-06T10:32:48.663Z,9.358652
2023-03-06T10:33:45.851Z,9.358638
2023-03-06T10:34:43.859Z,9.358614
2023-03-06T10:35:43.903Z,9.358566
2023-03-06T10:36:43.809Z,9.358535
2023-03-06T10:37:43.810Z,9.358535
2023-03-06T10:38:43.832Z,9.358534
2023-03-06T10:39:43.843Z,9.358567
2023-03-06T10:40:43.931Z,9.358588
2023-03-06T10:41:45.305Z,9.358596
2023-03-06T10:42:43.760Z,9.358480
2023-03-06T10:43:43.781Z,9.358494
2023-03-06T10:44:43.770Z,9.358593
2023-03-06T10:45:48.932Z,9.358569
2023-03-06T10:46:45.735Z,9.358567
2023-03-06T10:47:43.714Z,9.358543
2023-03-06T10:48:44.733Z,9.358576
2023-03-06T10:49:43.707Z,9.358595
2023-03-06T10:50:43.689Z,9.358590
2023-03-06T10:51:43.693Z,9.358675
2023-03-06T10:52:43.683Z,9.358644
2023-03-06T10:53:43.662Z,9.358632
2023-03-06T10:54:43.650Z,9.358580
2023-03-06T10:55:43.648Z,9.358524
2023-03-06T10:56:43.669Z,9.358479
2023-03-06T10:57:43.615Z,9.358516
2023-03-06T10:58:43.619Z,9.358551
2023-03-06T10:59:43.612Z,9.358573
2023-03-06T11:00:43.565Z,9.358587
2023-03-06T11:01:43.630Z,9.358562
2023-03-06T11:02:43.575Z,9.358558
2023-03-06T11:03:43.575Z,9.358554
2023-03-06T11:04:43.594Z,9.358582
2023-03-06T11:05:43.530Z,9.358582
2023-03-06T11:06:43.543Z,9.358564
2023-03-06T11:07:43.520Z,9.358548
2023-03-06T11:08:43.526Z,9.358543
2023-03-06T11:09:43.519Z,9.358557
2023-03-06T11:10:43.473Z,9.358553
2023-03-06T11:11:43.500Z,9.358549
2023-03-06T11:12:43.465Z,9.358556
2023-03-06T11:13:43.457Z,9.358626
2023-03-06T11:14:43.502Z,9.358541
2023-03-06T11:15:43.452Z,9.358517
2023-03-06T11:16:43.413Z,9.358493
2023-03-06T11:17:43.413Z,9.358493
2023-03-06T11:18:43.434Z,9.358557
2023-03-06T11:19:43.396Z,9.358552
2023-03-06T11:20:51.601Z,9.358541
2023-03-06T11:21:45.381Z,9.358552
2023-03-06T11:22:43.376Z,9.358586
2023-03-06T11:23:43.366Z,9.358582
2023-03-06T11:24:43.332Z,9.358522
2023-03-06T11:25:43.331Z,9.358491
2023-03-06T11:26:43.361Z,9.358687
2023-03-06T11:27:43.311Z,9.358688
2023-03-06T11:28:43.315Z,9.358707
2023-03-06T11:29:43.291Z,9.358608
2023-03-06T11:30:43.266Z,9.358646
2023-03-06T11:31:43.329Z,9.358605
2023-03-06T11:32:43.265Z,9.358613
2023-03-06T11:33:43.256Z,9.358593
2023-03-06T11:34:43.225Z,9.358609
2023-03-06T11:35:43.253Z,9.358615
2023-03-06T11:36:43.252Z,9.358575
2023-03-06T11:37:43.214Z,9.358603
2023-03-06T11:38:43.225Z,9.358616
2023-03-06T11:39:43.193Z,9.358663
2023-03-06T11:40:43.153Z,9.358611
2023-03-06T11:41:43.163Z,9.358522
2023-03-06T11:42:43.164Z,9.358532
2023-03-06T11:43:43.130Z,9.358584
2023-03-06T11:44:43.187Z,9.358582
2023-03-06T11:45:43.113Z,9.358646